sensor_id;sensor_type;location;lat;lon;timestamp;temperature;humidity
30063;DHT22;16889;67.864;24.990;2022-07-06T00:03:07;13.00;99.90
30063;DHT22;16889;67.864;24.990;2022-07-06T00:07:53;13.00;99.90
30063;DHT22;16889;67.864;24.990;2022-07-06T00:12:39;13.00;99.90
30063;DHT22;16889;67.864;24.990;2022-07-06T00:17:25;12.80;99.90
30063;DHT22;16889;67.864;24.990;2022-07-06T00:22:11;12.90;99.90
30063;DHT22;16889;67.864;24.990;2022-07-06T00:26:57;13.10;99.90
30063;DHT22;16889;67.864;24.990;2022-07-06T00:31:43;13.20;99.90
30063;DHT22;16889;67.864;24.990;2022-07-06T00:36:29;13.20;99.90
30063;DHT22;16889;67.864;24.990;2022-07-06T00:41:15;13.20;99.90
30063;DHT22;16889;67.864;24.990;2022-07-06T00:46:01;13.20;99.90
30063;DHT22;16889;67.864;24.990;2022-07-06T00:50:47;13.00;99.90
30063;DHT22;16889;67.864;24.990;2022-07-06T00:55:36;13.10;99.90
30063;DHT22;16889;67.864;24.990;2022-07-06T01:00:24;13.10;99.90
30063;DHT22;16889;67.864;24.990;2022-07-06T01:05:12;13.20;99.90
30063;DHT22;16889;67.864;24.990;2022-07-06T01:09:59;13.10;99.90
30063;DHT22;16889;67.864;24.990;2022-07-06T01:14:45;13.10;99.90
30063;DHT22;16889;67.864;24.990;2022-07-06T01:19:31;13.30;99.90
30063;DHT22;16889;67.864;24.990;2022-07-06T01:24:17;13.20;99.90
30063;DHT22;16889;67.864;24.990;2022-07-06T01:29:03;13.30;99.90
30063;DHT22;16889;67.864;24.990;2022-07-06T01:33:50;13.40;99.90
30063;DHT22;16889;67.864;24.990;2022-07-06T01:38:54;13.40;99.90
30063;DHT22;16889;67.864;24.990;2022-07-06T01:43:43;13.40;99.90
30063;DHT22;16889;67.864;24.990;2022-07-06T01:48:29;13.40;99.90
30063;DHT22;16889;67.864;24.990;2022-07-06T01:53:15;13.40;99.90
30063;DHT22;16889;67.864;24.990;2022-07-06T01:58:01;13.50;99.90
30063;DHT22;16889;67.864;24.990;2022-07-06T02:02:47;13.50;99.90
30063;DHT22;16889;67.864;24.990;2022-07-06T02:07:33;13.50;99.90
30063;DHT22;16889;67.864;24.990;2022-07-06T02:12:19;13.40;99.90
30063;DHT22;16889;67.864;24.990;2022-07-06T02:17:04;13.40;99.90
30063;DHT22;16889;67.864;24.990;2022-07-06T02:21:51;13.40;99.90
30063;DHT22;16889;67.864;24.990;2022-07-06T02:26:37;13.40;99.90
30063;DHT22;16889;67.864;24.990;2022-07-06T02:31:23;13.60;99.90
30063;DHT22;16889;67.864;24.990;2022-07-06T02:36:09;13.80;99.90
30063;DHT22;16889;67.864;24.990;2022-07-06T02:40:54;13.90;99.90
30063;DHT22;16889;67.864;24.990;2022-07-06T02:45:40;13.90;99.90
30063;DHT22;16889;67.864;24.990;2022-07-06T02:50:26;13.90;99.90
30063;DHT22;16889;67.864;24.990;2022-07-06T02:55:12;13.90;99.90
30063;DHT22;16889;67.864;24.990;2022-07-06T02:59:58;13.90;99.90
30063;DHT22;16889;67.864;24.990;2022-07-06T03:04:44;13.90;99.90
30063;DHT22;16889;67.864;24.990;2022-07-06T03:09:30;14.00;99.90
30063;DHT22;16889;67.864;24.990;2022-07-06T03:14:16;14.00;99.90
30063;DHT22;16889;67.864;24.990;2022-07-06T03:19:02;14.00;99.90
30063;DHT22;16889;67.864;24.990;2022-07-06T03:23:48;13.90;99.90
30063;DHT22;16889;67.864;24.990;2022-07-06T03:28:34;14.00;99.90
30063;DHT22;16889;67.864;24.990;2022-07-06T03:33:20;14.10;99.90
30063;DHT22;16889;67.864;24.990;2022-07-06T03:38:06;14.20;99.90
30063;DHT22;16889;67.864;24.990;2022-07-06T03:42:52;14.30;99.90
30063;DHT22;16889;67.864;24.990;2022-07-06T03:47:38;14.50;99.90
30063;DHT22;16889;67.864;24.990;2022-07-06T03:52:24;15.20;99.90
30063;DHT22;16889;67.864;24.990;2022-07-06T03:57:10;15.60;99.90
30063;DHT22;16889;67.864;24.990;2022-07-06T04:01:58;15.90;99.90
30063;DHT22;16889;67.864;24.990;2022-07-06T04:06:44;15.90;99.90
30063;DHT22;16889;67.864;24.990;2022-07-06T04:11:30;15.60;99.90
30063;DHT22;16889;67.864;24.990;2022-07-06T04:16:16;15.30;99.90
30063;DHT22;16889;67.864;24.990;2022-07-06T04:21:03;15.20;99.90
30063;DHT22;16889;67.864;24.990;2022-07-06T04:25:49;15.10;99.90
30063;DHT22;16889;67.864;24.990;2022-07-06T04:30:35;15.00;99.90
30063;DHT22;16889;67.864;24.990;2022-07-06T04:35:21;14.80;99.90
30063;DHT22;16889;67.864;24.990;2022-07-06T04:40:07;14.90;99.90
30063;DHT22;16889;67.864;24.990;2022-07-06T04:44:53;15.20;99.90
30063;DHT22;16889;67.864;24.990;2022-07-06T04:49:39;15.30;99.90
30063;DHT22;16889;67.864;24.990;2022-07-06T04:54:25;15.30;99.90
30063;DHT22;16889;67.864;24.990;2022-07-06T04:59:12;15.10;99.90
30063;DHT22;16889;67.864;24.990;2022-07-06T05:03:58;15.30;99.90
30063;DHT22;16889;67.864;24.990;2022-07-06T05:08:44;15.50;99.90
30063;DHT22;16889;67.864;24.990;2022-07-06T05:13:30;16.10;99.90
30063;DHT22;16889;67.864;24.990;2022-07-06T05:18:16;18.90;99.90
30063;DHT22;16889;67.864;24.990;2022-07-06T05:23:01;22.60;89.60
30063;DHT22;16889;67.864;24.990;2022-07-06T05:27:47;26.60;74.90
30063;DHT22;16889;67.864;24.990;2022-07-06T05:32:33;27.70;58.00
30063;DHT22;16889;67.864;24.990;2022-07-06T05:37:19;25.50;58.60
30063;DHT22;16889;67.864;24.990;2022-07-06T05:42:06;24.30;63.30
30063;DHT22;16889;67.864;24.990;2022-07-06T05:46:52;23.80;64.50
30063;DHT22;16889;67.864;24.990;2022-07-06T05:51:58;23.90;65.20
30063;DHT22;16889;67.864;24.990;2022-07-06T05:56:44;22.50;68.20
30063;DHT22;16889;67.864;24.990;2022-07-06T06:01:30;21.60;70.00
30063;DHT22;16889;67.864;24.990;2022-07-06T06:06:16;20.20;72.10
30063;DHT22;16889;67.864;24.990;2022-07-06T06:11:02;19.00;78.00
30063;DHT22;16889;67.864;24.990;2022-07-06T06:15:48;18.60;81.20
30063;DHT22;16889;67.864;24.990;2022-07-06T06:20:34;17.90;89.00
30063;DHT22;16889;67.864;24.990;2022-07-06T06:25:26;17.30;92.80
30063;DHT22;16889;67.864;24.990;2022-07-06T06:30:13;16.90;91.90
30063;DHT22;16889;67.864;24.990;2022-07-06T06:35:00;16.80;92.30
30063;DHT22;16889;67.864;24.990;2022-07-06T06:39:46;16.70;93.20
30063;DHT22;16889;67.864;24.990;2022-07-06T06:44:31;16.70;92.30
30063;DHT22;16889;67.864;24.990;2022-07-06T06:49:18;16.40;94.20
30063;DHT22;16889;67.864;24.990;2022-07-06T06:54:04;16.20;95.90
30063;DHT22;16889;67.864;24.990;2022-07-06T06:58:50;16.00;96.10
30063;DHT22;16889;67.864;24.990;2022-07-06T07:03:36;15.90;97.80
30063;DHT22;16889;67.864;24.990;2022-07-06T07:08:22;16.10;97.30
30063;DHT22;16889;67.864;24.990;2022-07-06T07:13:09;17.30;95.50
30063;DHT22;16889;67.864;24.990;2022-07-06T07:17:55;19.50;90.80
30063;DHT22;16889;67.864;24.990;2022-07-06T07:22:41;20.20;79.30
30063;DHT22;16889;67.864;24.990;2022-07-06T07:27:27;20.00;83.60
30063;DHT22;16889;67.864;24.990;2022-07-06T07:32:13;20.30;74.90
30063;DHT22;16889;67.864;24.990;2022-07-06T07:36:59;20.40;79.80
30063;DHT22;16889;67.864;24.990;2022-07-06T07:41:45;20.90;76.00
30063;DHT22;16889;67.864;24.990;2022-07-06T07:46:31;21.70;71.80
30063;DHT22;16889;67.864;24.990;2022-07-06T07:51:17;22.90;60.00
30063;DHT22;16889;67.864;24.990;2022-07-06T07:56:04;25.50;57.50
30063;DHT22;16889;67.864;24.990;2022-07-06T08:00:50;25.00;56.30
30063;DHT22;16889;67.864;24.990;2022-07-06T08:05:36;24.40;58.80
30063;DHT22;16889;67.864;24.990;2022-07-06T08:10:22;21.60;59.10
30063;DHT22;16889;67.864;24.990;2022-07-06T08:15:08;20.00;63.20
30063;DHT22;16889;67.864;24.990;2022-07-06T08:19:54;18.90;70.00
30063;DHT22;16889;67.864;24.990;2022-07-06T08:24:40;18.80;69.80
30063;DHT22;16889;67.864;24.990;2022-07-06T08:29:26;18.70;71.50
30063;DHT22;16889;67.864;24.990;2022-07-06T08:34:12;21.30;72.10
30063;DHT22;16889;67.864;24.990;2022-07-06T08:38:59;22.70;63.90
30063;DHT22;16889;67.864;24.990;2022-07-06T08:43:45;21.80;63.20
30063;DHT22;16889;67.864;24.990;2022-07-06T08:48:37;20.70;68.90
30063;DHT22;16889;67.864;24.990;2022-07-06T08:53:24;20.10;74.80
30063;DHT22;16889;67.864;24.990;2022-07-06T08:58:12;19.60;76.50
30063;DHT22;16889;67.864;24.990;2022-07-06T09:02:59;19.80;78.70
30063;DHT22;16889;67.864;24.990;2022-07-06T09:07:49;21.20;75.00
30063;DHT22;16889;67.864;24.990;2022-07-06T09:12:35;22.10;69.10
30063;DHT22;16889;67.864;24.990;2022-07-06T09:17:23;22.30;66.10
30063;DHT22;16889;67.864;24.990;2022-07-06T09:22:28;22.60;59.80
30063;DHT22;16889;67.864;24.990;2022-07-06T09:27:17;23.20;61.70
30063;DHT22;16889;67.864;24.990;2022-07-06T09:32:03;23.50;60.00
30063;DHT22;16889;67.864;24.990;2022-07-06T09:36:51;23.20;58.30
30063;DHT22;16889;67.864;24.990;2022-07-06T09:41:37;22.60;59.50
30063;DHT22;16889;67.864;24.990;2022-07-06T09:46:23;21.70;60.50
30063;DHT22;16889;67.864;24.990;2022-07-06T09:51:09;21.90;61.80
30063;DHT22;16889;67.864;24.990;2022-07-06T09:55:56;23.20;63.50
30063;DHT22;16889;67.864;24.990;2022-07-06T10:00:48;23.20;60.90
30063;DHT22;16889;67.864;24.990;2022-07-06T10:05:39;22.70;76.10
30063;DHT22;16889;67.864;24.990;2022-07-06T10:10:27;23.90;67.70
30063;DHT22;16889;67.864;24.990;2022-07-06T10:15:14;22.90;67.70
30063;DHT22;16889;67.864;24.990;2022-07-06T10:20:02;21.40;70.50
30063;DHT22;16889;67.864;24.990;2022-07-06T10:24:49;21.50;80.60
30063;DHT22;16889;67.864;24.990;2022-07-06T10:29:35;21.90;80.80
30063;DHT22;16889;67.864;24.990;2022-07-06T10:34:22;21.20;80.50
30063;DHT22;16889;67.864;24.990;2022-07-06T10:39:09;19.40;88.50
30063;DHT22;16889;67.864;24.990;2022-07-06T10:44:25;19.40;94.60
30063;DHT22;16889;67.864;24.990;2022-07-06T10:49:17;22.60;80.90
30063;DHT22;16889;67.864;24.990;2022-07-06T10:54:06;24.60;71.80
30063;DHT22;16889;67.864;24.990;2022-07-06T10:58:53;24.10;70.40
30063;DHT22;16889;67.864;24.990;2022-07-06T11:03:44;21.70;71.00
30063;DHT22;16889;67.864;24.990;2022-07-06T11:08:55;21.40;92.40
30063;DHT22;16889;67.864;24.990;2022-07-06T11:13:47;22.30;91.20
30063;DHT22;16889;67.864;24.990;2022-07-06T11:18:41;23.00;77.70
30063;DHT22;16889;67.864;24.990;2022-07-06T11:23:28;22.70;67.90
30063;DHT22;16889;67.864;24.990;2022-07-06T11:28:15;21.50;77.70
30063;DHT22;16889;67.864;24.990;2022-07-06T11:33:01;20.90;70.50
30063;DHT22;16889;67.864;24.990;2022-07-06T11:37:47;20.20;71.80
30063;DHT22;16889;67.864;24.990;2022-07-06T11:42:33;20.00;76.60
30063;DHT22;16889;67.864;24.990;2022-07-06T11:47:24;20.40;71.70
30063;DHT22;16889;67.864;24.990;2022-07-06T11:52:16;21.10;73.00
30063;DHT22;16889;67.864;24.990;2022-07-06T11:57:02;21.10;75.40
30063;DHT22;16889;67.864;24.990;2022-07-06T12:02:18;21.60;67.40
30063;DHT22;16889;67.864;24.990;2022-07-06T12:07:06;20.80;70.80
30063;DHT22;16889;67.864;24.990;2022-07-06T12:11:53;21.10;75.20
30063;DHT22;16889;67.864;24.990;2022-07-06T12:16:40;21.60;64.90
30063;DHT22;16889;67.864;24.990;2022-07-06T12:21:26;21.60;62.50
30063;DHT22;16889;67.864;24.990;2022-07-06T12:26:17;21.80;65.40
30063;DHT22;16889;67.864;24.990;2022-07-06T12:31:04;21.70;66.60
30063;DHT22;16889;67.864;24.990;2022-07-06T12:35:50;21.30;65.10
30063;DHT22;16889;67.864;24.990;2022-07-06T12:40:37;21.40;65.10
30063;DHT22;16889;67.864;24.990;2022-07-06T12:45:27;20.90;71.00
30063;DHT22;16889;67.864;24.990;2022-07-06T12:50:13;21.30;68.40
30063;DHT22;16889;67.864;24.990;2022-07-06T12:55:00;21.90;69.00
30063;DHT22;16889;67.864;24.990;2022-07-06T13:04:39;20.70;70.70
30063;DHT22;16889;67.864;24.990;2022-07-06T13:09:25;20.30;69.60
30063;DHT22;16889;67.864;24.990;2022-07-06T13:14:12;20.00;74.90
30063;DHT22;16889;67.864;24.990;2022-07-06T13:18:58;19.60;88.80
30063;DHT22;16889;67.864;24.990;2022-07-06T13:23:44;19.60;91.60
30063;DHT22;16889;67.864;24.990;2022-07-06T13:28:30;20.00;91.40
30063;DHT22;16889;67.864;24.990;2022-07-06T13:33:16;20.90;81.30
30063;DHT22;16889;67.864;24.990;2022-07-06T13:38:02;21.60;76.80
30063;DHT22;16889;67.864;24.990;2022-07-06T13:42:48;22.20;73.70
30063;DHT22;16889;67.864;24.990;2022-07-06T13:47:34;22.50;67.20
30063;DHT22;16889;67.864;24.990;2022-07-06T13:52:20;21.90;67.70
30063;DHT22;16889;67.864;24.990;2022-07-06T13:57:06;20.20;76.30
30063;DHT22;16889;67.864;24.990;2022-07-06T14:01:52;19.80;82.80
30063;DHT22;16889;67.864;24.990;2022-07-06T14:06:38;19.60;80.40
30063;DHT22;16889;67.864;24.990;2022-07-06T14:11:24;18.70;82.70
30063;DHT22;16889;67.864;24.990;2022-07-06T14:16:10;17.60;84.90
30063;DHT22;16889;67.864;24.990;2022-07-06T14:20:57;16.50;92.50
30063;DHT22;16889;67.864;24.990;2022-07-06T14:25:43;16.20;97.60
30063;DHT22;16889;67.864;24.990;2022-07-06T14:30:29;16.20;99.90
30063;DHT22;16889;67.864;24.990;2022-07-06T14:35:16;16.10;99.90
30063;DHT22;16889;67.864;24.990;2022-07-06T14:40:02;15.80;99.90
30063;DHT22;16889;67.864;24.990;2022-07-06T14:44:48;15.50;99.90
30063;DHT22;16889;67.864;24.990;2022-07-06T14:49:35;14.80;99.90
30063;DHT22;16889;67.864;24.990;2022-07-06T14:54:21;14.20;99.90
30063;DHT22;16889;67.864;24.990;2022-07-06T14:59:07;14.10;99.90
30063;DHT22;16889;67.864;24.990;2022-07-06T15:03:53;15.00;99.90
30063;DHT22;16889;67.864;24.990;2022-07-06T15:08:39;15.80;99.90
30063;DHT22;16889;67.864;24.990;2022-07-06T15:13:25;16.10;99.90
30063;DHT22;16889;67.864;24.990;2022-07-06T15:18:11;16.50;99.90
30063;DHT22;16889;67.864;24.990;2022-07-06T15:22:57;16.70;99.90
30063;DHT22;16889;67.864;24.990;2022-07-06T15:27:43;16.70;99.90
30063;DHT22;16889;67.864;24.990;2022-07-06T15:32:30;16.40;99.90
30063;DHT22;16889;67.864;24.990;2022-07-06T15:37:16;15.90;99.90
30063;DHT22;16889;67.864;24.990;2022-07-06T15:42:02;16.00;99.90
30063;DHT22;16889;67.864;24.990;2022-07-06T15:46:48;16.30;99.90
30063;DHT22;16889;67.864;24.990;2022-07-06T15:51:34;16.40;99.90
30063;DHT22;16889;67.864;24.990;2022-07-06T15:56:21;16.50;99.90
30063;DHT22;16889;67.864;24.990;2022-07-06T16:01:07;16.70;99.90
30063;DHT22;16889;67.864;24.990;2022-07-06T16:05:53;16.90;99.90
30063;DHT22;16889;67.864;24.990;2022-07-06T16:10:39;17.10;99.90
30063;DHT22;16889;67.864;24.990;2022-07-06T16:15:36;17.60;99.90
30063;DHT22;16889;67.864;24.990;2022-07-06T16:20:24;18.00;99.90
30063;DHT22;16889;67.864;24.990;2022-07-06T16:25:11;18.40;99.90
30063;DHT22;16889;67.864;24.990;2022-07-06T16:29:57;18.60;99.90
30063;DHT22;16889;67.864;24.990;2022-07-06T16:34:43;18.70;99.90
30063;DHT22;16889;67.864;24.990;2022-07-06T16:39:29;18.80;99.90
30063;DHT22;16889;67.864;24.990;2022-07-06T16:44:15;18.70;99.90
30063;DHT22;16889;67.864;24.990;2022-07-06T16:49:01;18.40;99.90
30063;DHT22;16889;67.864;24.990;2022-07-06T16:53:47;18.30;99.90
30063;DHT22;16889;67.864;24.990;2022-07-06T16:58:33;18.20;99.90
30063;DHT22;16889;67.864;24.990;2022-07-06T17:03:19;17.70;99.90
30063;DHT22;16889;67.864;24.990;2022-07-06T17:08:06;17.50;99.90
30063;DHT22;16889;67.864;24.990;2022-07-06T17:12:52;17.40;99.90
30063;DHT22;16889;67.864;24.990;2022-07-06T17:17:38;17.40;99.90
30063;DHT22;16889;67.864;24.990;2022-07-06T17:22:24;17.40;99.90
